»·PEaware :: N8833D YSSY-NZAA

N8833D :: YSSY-NZAA

FLIGHT INFORMATION

Flight Status: Arrived
Operator: Privately registered:
United States
More flights under this callsign
Pilot: Cooper L. (8467)
Aircraft: AIRBUS A330-200
(A332)
More flights by this aircraft type
Origin: YSSY Kingsford Smith Intl
Australia
Destination: NZAA Auckland Intl
New Zealand
More flights between these airports :: More routes between these airports
Route: ENTRA4 LUNBI ARADI6A
File this flight plan on PilotEdge
Remarks:
Altitude:
(Current/Filed)
40,000ft
Speed:
(Current/Filed)
500kts
Departed: 10-Oct-15 10:12 AM
Arrived: 10-Oct-15 12:25 PM
Distance/Time
Traveled:
1165nm/2:13
Distance/Time
To Go:
Arrived

Flight Plot

Page will automatically refresh every two minutes.


Map Options




Map Legend


Flown Route
Filed Route
Departure Airport
Arrival Airport
Navaid (VOR, NDB)
Fix

Horizontal Profiles

Position Reports

Time Latitude Longitude Heading Altitude Ground
Speed
10-Oct-15 10:06 -33.935994 151.178428 219 34ft 0kts
10-Oct-15 10:07 -33.935994 151.178428 219 34ft 0kts
10-Oct-15 10:08 -33.936125 151.178035 263 33ft 6kts
10-Oct-15 10:09 -33.940286 151.178435 167 34ft 35kts
10-Oct-15 10:10 -33.945499 151.179191 175 34ft 0kts
10-Oct-15 10:11 -33.947541 151.178741 168 34ft 41kts
10-Oct-15 10:12 -33.951356 151.185508 80 33ft 36kts
10-Oct-15 10:13 -33.958723 151.190255 141 33ft 36kts
10-Oct-15 10:14 -33.970244 151.193252 190 34ft 29kts
10-Oct-15 10:15 -33.970794 151.194071 348 34ft 0kts
10-Oct-15 10:16 -33.947057 151.188457 352 394ft 169kts
10-Oct-15 10:17 -33.910653 151.209151 31 2238ft 219kts
10-Oct-15 10:18 -33.845223 151.265173 32 4377ft 350kts
10-Oct-15 10:19 -33.808582 151.349056 58 7838ft 296kts
10-Oct-15 10:20 -33.762878 151.429248 43 9468ft 295kts
10-Oct-15 10:21 -33.708363 151.511496 42 11049ft 346kts
10-Oct-15 10:22 -33.644853 151.606061 45 12950ft 389kts
10-Oct-15 10:23 -33.656570 151.736244 139 15350ft 456kts
10-Oct-15 10:24 -33.761438 151.794078 160 17563ft 464kts
10-Oct-15 10:25 -33.860573 151.847788 159 19517ft 477kts
10-Oct-15 10:26 -33.983354 151.914904 159 21735ft 492kts
10-Oct-15 10:27 -34.109639 151.984179 159 23799ft 506kts
10-Oct-15 10:28 -34.211712 152.097188 109 25570ft 526kts
10-Oct-15 10:29 -34.263107 152.265149 106 27270ft 539kts
10-Oct-15 10:30 -34.310530 152.429585 106 28777ft 550kts
10-Oct-15 10:31 -34.360465 152.603985 106 30837ft 548kts
10-Oct-15 10:32 -34.409976 152.777987 106 32668ft 545kts
10-Oct-15 10:33 -34.459166 152.951928 106 34299ft 543kts
10-Oct-15 10:34 -34.507734 153.124563 106 35780ft 540kts
10-Oct-15 10:35 -34.555988 153.296120 106 36897ft 539kts
10-Oct-15 10:36 -34.603884 153.468193 106 37786ft 539kts
10-Oct-15 10:37 -34.651350 153.640269 106 38366ft 544kts
10-Oct-15 10:38 -34.699599 153.816250 106 38951ft 548kts
10-Oct-15 10:39 -34.747529 153.992228 106 39631ft 548kts
10-Oct-15 10:40 -34.795376 154.167980 105 40062ft 547kts
10-Oct-15 10:41 -34.842869 154.344247 105 39994ft 547kts
10-Oct-15 10:42 -34.889910 154.520339 105 40003ft 547kts
10-Oct-15 10:43 -34.936796 154.697014 105 40002ft 547kts
10-Oct-15 10:44 -34.983369 154.872672 106 40002ft 547kts
10-Oct-15 10:45 -35.031121 155.048546 105 40003ft 547kts
10-Oct-15 10:46 -35.077598 155.225254 104 40002ft 547kts
10-Oct-15 10:47 -35.123325 155.401515 104 40002ft 553kts
10-Oct-15 10:48 -35.169931 155.582440 104 40002ft 558kts
10-Oct-15 10:49 -35.216136 155.763083 104 40003ft 558kts
10-Oct-15 10:50 -35.262284 155.944768 104 40177ft 559kts
10-Oct-15 10:51 -35.308133 156.126336 104 40248ft 559kts
10-Oct-15 10:52 -35.353973 156.308048 104 40373ft 559kts
10-Oct-15 10:53 -35.399187 156.489853 104 40373ft 559kts
10-Oct-15 10:54 -35.444316 156.672644 104 40375ft 559kts
10-Oct-15 10:55 -35.488923 156.854635 104 40375ft 559kts
10-Oct-15 10:56 -35.533386 157.037358 104 40375ft 559kts
10-Oct-15 10:57 -35.577965 157.219995 103 40372ft 558kts
10-Oct-15 10:58 -35.621800 157.402597 103 40372ft 558kts
10-Oct-15 10:59 -35.665265 157.585215 103 40373ft 558kts
10-Oct-15 11:00 -35.708556 157.768469 103 40373ft 558kts
10-Oct-15 11:01 -35.751536 157.951781 103 40374ft 558kts
10-Oct-15 11:02 -35.790845 158.136028 96 40375ft 555kts
10-Oct-15 11:03 -35.822289 158.322183 98 40373ft 556kts
10-Oct-15 11:04 -35.853811 158.507658 98 40373ft 556kts
10-Oct-15 11:05 -35.885219 158.694252 98 40373ft 556kts
10-Oct-15 11:06 -35.916400 158.881365 98 40374ft 556kts
10-Oct-15 11:07 -35.946290 159.062529 98 40374ft 556kts
10-Oct-15 11:08 -35.976624 159.245931 97 40008ft 554kts
10-Oct-15 11:09 -36.006782 159.432275 97 40003ft 554kts
10-Oct-15 11:10 -36.036650 159.618924 97 40002ft 554kts
10-Oct-15 11:11 -36.066198 159.805523 97 40002ft 554kts
10-Oct-15 11:12 -36.095497 159.992515 97 40003ft 554kts
10-Oct-15 11:13 -36.124819 160.179595 96 40001ft 553kts
10-Oct-15 11:14 -36.153513 160.366201 96 40002ft 553kts
10-Oct-15 11:15 -36.181937 160.553572 96 40002ft 553kts
10-Oct-15 11:16 -36.210001 160.740645 96 40002ft 553kts
10-Oct-15 11:17 -36.237750 160.927685 96 40003ft 553kts
10-Oct-15 11:18 -36.265272 161.115218 96 40001ft 553kts
10-Oct-15 11:19 -36.292799 161.302385 96 40002ft 553kts
10-Oct-15 11:20 -36.319776 161.490499 95 40002ft 553kts
10-Oct-15 11:21 -36.341901 161.646473 95 40003ft 553kts
10-Oct-15 11:22 -36.368216 161.833993 95 40003ft 553kts
10-Oct-15 11:23 -36.394205 162.021404 95 40004ft 553kts
10-Oct-15 11:24 -36.420291 162.209232 95 40001ft 552kts
10-Oct-15 11:25 -36.445831 162.397547 95 40002ft 552kts
10-Oct-15 11:26 -36.470942 162.585344 95 40003ft 552kts
10-Oct-15 11:27 -36.495772 162.773374 95 40003ft 552kts
10-Oct-15 11:28 -36.520348 162.961843 95 40004ft 552kts
10-Oct-15 11:29 -36.542794 163.150206 94 40002ft 551kts
10-Oct-15 11:30 -36.566956 163.338698 94 40000ft 551kts
10-Oct-15 11:31 -36.590506 163.526708 94 40000ft 551kts
10-Oct-15 11:32 -36.617755 163.747507 94 40001ft 551kts
10-Oct-15 11:33 -36.663427 164.125246 94 39998ft 551kts
10-Oct-15 11:34 -36.734051 164.728213 93 40002ft 551kts
10-Oct-15 11:35 -36.804620 165.359462 93 40327ft 552kts
10-Oct-15 11:36 -36.854186 165.825353 93 40346ft 552kts
10-Oct-15 11:37 -36.903343 166.301896 92 40345ft 551kts
10-Oct-15 11:38 -36.945070 166.725811 92 40281ft 549kts
10-Oct-15 11:39 -36.985434 167.149850 92 40237ft 547kts
10-Oct-15 11:40 -37.022550 167.554412 91 40238ft 546kts
10-Oct-15 11:41 -37.060080 167.982845 91 40239ft 546kts
10-Oct-15 11:42 -37.096337 168.409911 90 40238ft 546kts
10-Oct-15 11:43 -37.130177 168.831373 90 40239ft 546kts
10-Oct-15 11:44 -37.156356 169.167516 90 40239ft 545kts
10-Oct-15 11:45 -37.180777 169.494764 90 40238ft 545kts
10-Oct-15 11:46 -37.205187 169.836884 90 40239ft 545kts
10-Oct-15 11:47 -37.228067 170.166925 89 40239ft 545kts
10-Oct-15 11:48 -37.247554 170.460888 89 40238ft 544kts
10-Oct-15 11:49 -37.259047 170.641026 89 40239ft 544kts
10-Oct-15 11:50 -37.251557 170.828117 81 40239ft 538kts
10-Oct-15 11:51 -37.245362 171.009874 81 40239ft 538kts
10-Oct-15 11:52 -37.239367 171.192850 81 40236ft 538kts
10-Oct-15 11:53 -37.232689 171.378050 81 40237ft 538kts
10-Oct-15 11:54 -37.225627 171.564361 81 40238ft 538kts
10-Oct-15 11:55 -37.218294 171.750042 81 40239ft 537kts
10-Oct-15 11:56 -37.210605 171.937266 81 40240ft 537kts
10-Oct-15 11:57 -37.202665 172.124517 80 40236ft 537kts
10-Oct-15 11:58 -37.194776 172.311434 80 40237ft 537kts
10-Oct-15 11:59 -37.186441 172.498874 81 40238ft 537kts
10-Oct-15 12:00 -37.179631 172.685814 81 40239ft 538kts
10-Oct-15 12:01 -37.172656 172.873280 81 40239ft 538kts
10-Oct-15 12:02 -37.165453 173.059711 81 39964ft 529kts
10-Oct-15 12:03 -37.158460 173.242631 80 35610ft 534kts
10-Oct-15 12:04 -37.150682 173.427648 79 30641ft 542kts
10-Oct-15 12:05 -37.123786 173.602357 71 26920ft 505kts
10-Oct-15 12:06 -37.096121 173.768518 71 23381ft 476kts
10-Oct-15 12:07 -37.070170 173.924902 70 19868ft 450kts
10-Oct-15 12:08 -37.052546 174.030338 72 17328ft 436kts
10-Oct-15 12:09 -37.029318 174.170068 71 13989ft 415kts
10-Oct-15 12:10 -37.007187 174.300295 70 12601ft 341kts
10-Oct-15 12:11 -36.988376 174.406093 65 10983ft 308kts
10-Oct-15 12:12 -36.962585 174.503815 66 9594ft 270kts
10-Oct-15 12:13 -36.936075 174.589474 69 7740ft 266kts
10-Oct-15 12:14 -36.919036 174.677026 79 6108ft 261kts
10-Oct-15 12:15 -36.926976 174.761757 127 6010ft 247kts
10-Oct-15 12:16 -36.967149 174.803633 166 6009ft 230kts
10-Oct-15 12:17 -37.027060 174.816320 146 6026ft 238kts
10-Oct-15 12:18 -37.011618 174.885004 37 4913ft 245kts
10-Oct-15 12:19 -36.960763 174.928715 351 4635ft 228kts
10-Oct-15 12:20 -36.918240 174.885342 326 3325ft 222kts
10-Oct-15 12:21 -36.930503 174.837449 186 3213ft 207kts
10-Oct-15 12:22 -36.980480 174.848599 212 1436ft 162kts
10-Oct-15 12:23 -37.002324 174.819724 237 386ft 134kts
10-Oct-15 12:24 -37.011469 174.788380 252 33ft 33kts
10-Oct-15 12:25 -37.012153 174.780917 284 33ft 21kts
10-Oct-15 12:26 -37.010891 174.779634 73 33ft 21kts
10-Oct-15 12:27 -37.008693 174.780587 95 33ft 10kts
10-Oct-15 12:28 -37.008287 174.781464 36 33ft 0kts
10-Oct-15 12:29 -37.008287 174.781464 36 33ft 0kts
10-Oct-15 12:30 -37.008287 174.781464 36 33ft 0kts

Navigation Log

Ident Type
Flight plan parsing failed, navigation log unavailable